sensor_id;sensor_type;location;lat;lon;timestamp;P1;durP1;ratioP1;P2;durP2;ratioP2
20379;SDS011;10349;48.666;8.948;2023-05-14T00:02:12;12.17;;;8.83;;
20379;SDS011;10349;48.666;8.948;2023-05-14T00:04:38;10.80;;;9.33;;
20379;SDS011;10349;48.666;8.948;2023-05-14T00:07:04;11.77;;;8.70;;
20379;SDS011;10349;48.666;8.948;2023-05-14T00:09:30;12.47;;;8.63;;
20379;SDS011;10349;48.666;8.948;2023-05-14T00:11:56;11.63;;;8.00;;
20379;SDS011;10349;48.666;8.948;2023-05-14T00:14:22;7.90;;;7.17;;
20379;SDS011;10349;48.666;8.948;2023-05-14T00:16:49;14.50;;;9.50;;
20379;SDS011;10349;48.666;8.948;2023-05-14T00:19:15;12.33;;;9.70;;
20379;SDS011;10349;48.666;8.948;2023-05-14T00:21:40;13.60;;;9.30;;
20379;SDS011;10349;48.666;8.948;2023-05-14T00:24:07;11.90;;;8.73;;
20379;SDS011;10349;48.666;8.948;2023-05-14T00:26:32;11.00;;;9.13;;
20379;SDS011;10349;48.666;8.948;2023-05-14T00:28:58;11.90;;;9.40;;
20379;SDS011;10349;48.666;8.948;2023-05-14T00:31:23;10.60;;;9.07;;
20379;SDS011;10349;48.666;8.948;2023-05-14T00:33:49;14.47;;;10.17;;
20379;SDS011;10349;48.666;8.948;2023-05-14T00:36:15;11.60;;;9.17;;
20379;SDS011;10349;48.666;8.948;2023-05-14T00:38:40;14.37;;;9.40;;
20379;SDS011;10349;48.666;8.948;2023-05-14T00:41:06;15.10;;;9.53;;
20379;SDS011;10349;48.666;8.948;2023-05-14T00:43:32;15.00;;;9.10;;
20379;SDS011;10349;48.666;8.948;2023-05-14T00:45:58;15.60;;;9.60;;
20379;SDS011;10349;48.666;8.948;2023-05-14T00:48:24;10.60;;;9.40;;
20379;SDS011;10349;48.666;8.948;2023-05-14T00:50:50;12.33;;;9.50;;
20379;SDS011;10349;48.666;8.948;2023-05-14T00:53:17;10.77;;;8.97;;
20379;SDS011;10349;48.666;8.948;2023-05-14T00:55:43;12.73;;;10.17;;
20379;SDS011;10349;48.666;8.948;2023-05-14T00:58:12;10.20;;;9.10;;
20379;SDS011;10349;48.666;8.948;2023-05-14T01:00:38;11.63;;;10.03;;
20379;SDS011;10349;48.666;8.948;2023-05-14T01:03:05;11.37;;;9.17;;
20379;SDS011;10349;48.666;8.948;2023-05-14T01:05:35;10.87;;;9.00;;
20379;SDS011;10349;48.666;8.948;2023-05-14T01:08:45;12.00;;;9.47;;
20379;SDS011;10349;48.666;8.948;2023-05-14T01:11:28;11.13;;;9.33;;
20379;SDS011;10349;48.666;8.948;2023-05-14T01:14:02;12.80;;;9.83;;
20379;SDS011;10349;48.666;8.948;2023-05-14T01:16:32;10.20;;;8.73;;
20379;SDS011;10349;48.666;8.948;2023-05-14T01:18:58;12.60;;;10.20;;
20379;SDS011;10349;48.666;8.948;2023-05-14T01:24:05;13.43;;;9.60;;
20379;SDS011;10349;48.666;8.948;2023-05-14T01:26:31;10.03;;;8.77;;
20379;SDS011;10349;48.666;8.948;2023-05-14T01:29:03;16.30;;;9.67;;
20379;SDS011;10349;48.666;8.948;2023-05-14T01:31:46;11.30;;;8.90;;
20379;SDS011;10349;48.666;8.948;2023-05-14T01:34:14;12.10;;;9.03;;
20379;SDS011;10349;48.666;8.948;2023-05-14T01:36:42;14.30;;;10.90;;
20379;SDS011;10349;48.666;8.948;2023-05-14T01:39:08;13.77;;;10.47;;
20379;SDS011;10349;48.666;8.948;2023-05-14T01:41:36;14.30;;;10.20;;
20379;SDS011;10349;48.666;8.948;2023-05-14T01:44:03;13.90;;;9.80;;
20379;SDS011;10349;48.666;8.948;2023-05-14T01:46:30;18.23;;;11.13;;
20379;SDS011;10349;48.666;8.948;2023-05-14T01:48:56;14.00;;;9.73;;
20379;SDS011;10349;48.666;8.948;2023-05-14T01:51:22;14.00;;;9.87;;
20379;SDS011;10349;48.666;8.948;2023-05-14T01:53:48;11.10;;;9.63;;
20379;SDS011;10349;48.666;8.948;2023-05-14T01:56:14;14.33;;;10.20;;
20379;SDS011;10349;48.666;8.948;2023-05-14T01:58:39;12.80;;;9.87;;
20379;SDS011;10349;48.666;8.948;2023-05-14T02:01:05;13.63;;;9.57;;
20379;SDS011;10349;48.666;8.948;2023-05-14T02:03:31;13.77;;;9.73;;
20379;SDS011;10349;48.666;8.948;2023-05-14T02:05:57;12.80;;;10.93;;
20379;SDS011;10349;48.666;8.948;2023-05-14T02:08:22;15.87;;;10.13;;
20379;SDS011;10349;48.666;8.948;2023-05-14T02:10:48;15.93;;;11.70;;
20379;SDS011;10349;48.666;8.948;2023-05-14T02:13:14;13.27;;;10.27;;
20379;SDS011;10349;48.666;8.948;2023-05-14T02:15:40;16.70;;;11.07;;
20379;SDS011;10349;48.666;8.948;2023-05-14T02:18:06;13.23;;;10.37;;
20379;SDS011;10349;48.666;8.948;2023-05-14T02:20:31;16.70;;;10.97;;
20379;SDS011;10349;48.666;8.948;2023-05-14T02:22:58;12.27;;;10.20;;
20379;SDS011;10349;48.666;8.948;2023-05-14T02:25:24;21.40;;;10.70;;
20379;SDS011;10349;48.666;8.948;2023-05-14T02:27:49;15.60;;;11.77;;
20379;SDS011;10349;48.666;8.948;2023-05-14T02:30:15;12.03;;;8.77;;
20379;SDS011;10349;48.666;8.948;2023-05-14T02:32:40;12.30;;;9.90;;
20379;SDS011;10349;48.666;8.948;2023-05-14T02:35:06;15.13;;;10.40;;
20379;SDS011;10349;48.666;8.948;2023-05-14T02:37:32;12.43;;;9.83;;
20379;SDS011;10349;48.666;8.948;2023-05-14T02:39:58;13.50;;;9.53;;
20379;SDS011;10349;48.666;8.948;2023-05-14T02:42:24;15.33;;;10.23;;
20379;SDS011;10349;48.666;8.948;2023-05-14T02:44:51;12.67;;;9.23;;
20379;SDS011;10349;48.666;8.948;2023-05-14T02:47:17;11.50;;;9.57;;
20379;SDS011;10349;48.666;8.948;2023-05-14T02:49:42;15.53;;;10.73;;
20379;SDS011;10349;48.666;8.948;2023-05-14T02:52:08;9.60;;;8.67;;
20379;SDS011;10349;48.666;8.948;2023-05-14T02:54:34;11.43;;;9.13;;
20379;SDS011;10349;48.666;8.948;2023-05-14T02:57:00;12.93;;;11.10;;
20379;SDS011;10349;48.666;8.948;2023-05-14T02:59:26;17.53;;;10.47;;
20379;SDS011;10349;48.666;8.948;2023-05-14T03:01:52;15.43;;;10.57;;
20379;SDS011;10349;48.666;8.948;2023-05-14T03:04:18;13.77;;;10.67;;
20379;SDS011;10349;48.666;8.948;2023-05-14T03:06:43;12.73;;;9.47;;
20379;SDS011;10349;48.666;8.948;2023-05-14T03:09:09;13.47;;;9.57;;
20379;SDS011;10349;48.666;8.948;2023-05-14T03:11:35;15.40;;;10.70;;
20379;SDS011;10349;48.666;8.948;2023-05-14T03:14:00;14.37;;;10.57;;
20379;SDS011;10349;48.666;8.948;2023-05-14T03:16:26;13.90;;;9.83;;
20379;SDS011;10349;48.666;8.948;2023-05-14T03:18:54;19.13;;;11.80;;
20379;SDS011;10349;48.666;8.948;2023-05-14T03:21:20;16.60;;;10.90;;
20379;SDS011;10349;48.666;8.948;2023-05-14T03:23:47;10.17;;;8.33;;
20379;SDS011;10349;48.666;8.948;2023-05-14T03:26:12;12.00;;;9.50;;
20379;SDS011;10349;48.666;8.948;2023-05-14T03:28:38;14.23;;;10.30;;
20379;SDS011;10349;48.666;8.948;2023-05-14T03:31:04;13.47;;;10.10;;
20379;SDS011;10349;48.666;8.948;2023-05-14T03:33:30;14.67;;;10.40;;
20379;SDS011;10349;48.666;8.948;2023-05-14T03:35:56;12.27;;;9.57;;
20379;SDS011;10349;48.666;8.948;2023-05-14T03:38:22;17.00;;;11.27;;
20379;SDS011;10349;48.666;8.948;2023-05-14T03:40:47;15.17;;;10.60;;
20379;SDS011;10349;48.666;8.948;2023-05-14T03:43:13;16.00;;;10.57;;
20379;SDS011;10349;48.666;8.948;2023-05-14T03:45:40;17.70;;;10.80;;
20379;SDS011;10349;48.666;8.948;2023-05-14T03:48:06;14.83;;;10.93;;
20379;SDS011;10349;48.666;8.948;2023-05-14T03:50:31;14.20;;;9.87;;
20379;SDS011;10349;48.666;8.948;2023-05-14T03:52:57;11.67;;;10.20;;
20379;SDS011;10349;48.666;8.948;2023-05-14T03:55:23;13.47;;;10.60;;
20379;SDS011;10349;48.666;8.948;2023-05-14T03:57:48;17.50;;;11.17;;
20379;SDS011;10349;48.666;8.948;2023-05-14T04:00:14;13.70;;;10.03;;
20379;SDS011;10349;48.666;8.948;2023-05-14T04:02:43;17.33;;;11.87;;
20379;SDS011;10349;48.666;8.948;2023-05-14T04:05:09;15.30;;;9.97;;
20379;SDS011;10349;48.666;8.948;2023-05-14T04:07:34;16.57;;;10.50;;
20379;SDS011;10349;48.666;8.948;2023-05-14T04:10:01;16.83;;;10.33;;
20379;SDS011;10349;48.666;8.948;2023-05-14T04:12:27;12.90;;;10.03;;
20379;SDS011;10349;48.666;8.948;2023-05-14T04:14:53;10.60;;;9.50;;
20379;SDS011;10349;48.666;8.948;2023-05-14T04:17:19;16.67;;;10.60;;
20379;SDS011;10349;48.666;8.948;2023-05-14T04:19:44;15.93;;;10.00;;
20379;SDS011;10349;48.666;8.948;2023-05-14T04:22:10;15.10;;;9.73;;
20379;SDS011;10349;48.666;8.948;2023-05-14T04:24:35;12.60;;;10.33;;
20379;SDS011;10349;48.666;8.948;2023-05-14T04:27:01;12.03;;;9.37;;
20379;SDS011;10349;48.666;8.948;2023-05-14T04:29:27;15.20;;;9.57;;
20379;SDS011;10349;48.666;8.948;2023-05-14T04:31:53;12.47;;;10.30;;
20379;SDS011;10349;48.666;8.948;2023-05-14T04:34:18;13.97;;;9.17;;
20379;SDS011;10349;48.666;8.948;2023-05-14T04:36:44;14.80;;;10.83;;
20379;SDS011;10349;48.666;8.948;2023-05-14T04:39:10;13.07;;;9.67;;
20379;SDS011;10349;48.666;8.948;2023-05-14T04:41:36;13.83;;;10.10;;
20379;SDS011;10349;48.666;8.948;2023-05-14T04:44:02;11.97;;;10.13;;
20379;SDS011;10349;48.666;8.948;2023-05-14T04:46:28;13.97;;;10.30;;
20379;SDS011;10349;48.666;8.948;2023-05-14T04:48:54;15.70;;;10.93;;
20379;SDS011;10349;48.666;8.948;2023-05-14T04:51:20;14.70;;;9.63;;
20379;SDS011;10349;48.666;8.948;2023-05-14T04:53:46;13.10;;;9.10;;
20379;SDS011;10349;48.666;8.948;2023-05-14T04:56:12;12.00;;;10.17;;
20379;SDS011;10349;48.666;8.948;2023-05-14T04:58:38;17.57;;;9.63;;
20379;SDS011;10349;48.666;8.948;2023-05-14T05:01:04;11.90;;;10.03;;
20379;SDS011;10349;48.666;8.948;2023-05-14T05:03:30;14.90;;;10.73;;
20379;SDS011;10349;48.666;8.948;2023-05-14T05:05:56;17.40;;;10.13;;
20379;SDS011;10349;48.666;8.948;2023-05-14T05:08:21;12.10;;;9.03;;
20379;SDS011;10349;48.666;8.948;2023-05-14T05:10:47;12.67;;;9.43;;
20379;SDS011;10349;48.666;8.948;2023-05-14T05:13:13;15.43;;;10.13;;
20379;SDS011;10349;48.666;8.948;2023-05-14T05:15:40;11.67;;;10.00;;
20379;SDS011;10349;48.666;8.948;2023-05-14T05:18:07;13.03;;;9.10;;
20379;SDS011;10349;48.666;8.948;2023-05-14T05:20:32;11.40;;;9.17;;
20379;SDS011;10349;48.666;8.948;2023-05-14T05:22:58;15.73;;;9.37;;
20379;SDS011;10349;48.666;8.948;2023-05-14T05:25:23;12.33;;;9.07;;
20379;SDS011;10349;48.666;8.948;2023-05-14T05:27:49;20.90;;;9.90;;
20379;SDS011;10349;48.666;8.948;2023-05-14T05:30:15;13.70;;;9.73;;
20379;SDS011;10349;48.666;8.948;2023-05-14T05:32:40;16.40;;;9.37;;
20379;SDS011;10349;48.666;8.948;2023-05-14T05:35:06;10.37;;;8.80;;
20379;SDS011;10349;48.666;8.948;2023-05-14T05:37:32;10.70;;;9.00;;
20379;SDS011;10349;48.666;8.948;2023-05-14T05:39:58;11.70;;;8.87;;
20379;SDS011;10349;48.666;8.948;2023-05-14T05:42:23;12.13;;;9.33;;
20379;SDS011;10349;48.666;8.948;2023-05-14T05:44:50;15.40;;;10.53;;
20379;SDS011;10349;48.666;8.948;2023-05-14T05:47:15;10.57;;;8.27;;
20379;SDS011;10349;48.666;8.948;2023-05-14T05:49:41;18.43;;;11.07;;
20379;SDS011;10349;48.666;8.948;2023-05-14T05:52:06;16.90;;;11.37;;
20379;SDS011;10349;48.666;8.948;2023-05-14T05:54:32;14.20;;;10.90;;
20379;SDS011;10349;48.666;8.948;2023-05-14T05:56:59;13.23;;;10.20;;
20379;SDS011;10349;48.666;8.948;2023-05-14T05:59:26;13.63;;;9.90;;
20379;SDS011;10349;48.666;8.948;2023-05-14T06:01:51;14.23;;;9.53;;
20379;SDS011;10349;48.666;8.948;2023-05-14T06:04:17;12.17;;;8.47;;
20379;SDS011;10349;48.666;8.948;2023-05-14T06:06:43;12.40;;;9.40;;
20379;SDS011;10349;48.666;8.948;2023-05-14T06:09:08;13.90;;;9.33;;
20379;SDS011;10349;48.666;8.948;2023-05-14T06:11:34;14.57;;;9.10;;
20379;SDS011;10349;48.666;8.948;2023-05-14T06:14:00;18.13;;;10.57;;
20379;SDS011;10349;48.666;8.948;2023-05-14T06:16:26;15.63;;;10.50;;
20379;SDS011;10349;48.666;8.948;2023-05-14T06:18:52;13.40;;;9.33;;
20379;SDS011;10349;48.666;8.948;2023-05-14T06:21:18;16.30;;;10.60;;
20379;SDS011;10349;48.666;8.948;2023-05-14T06:23:44;18.97;;;10.67;;
20379;SDS011;10349;48.666;8.948;2023-05-14T06:26:10;14.80;;;10.27;;
20379;SDS011;10349;48.666;8.948;2023-05-14T06:28:35;16.17;;;10.90;;
20379;SDS011;10349;48.666;8.948;2023-05-14T06:31:01;17.77;;;10.80;;
20379;SDS011;10349;48.666;8.948;2023-05-14T06:33:26;17.43;;;10.90;;
20379;SDS011;10349;48.666;8.948;2023-05-14T06:36:03;20.27;;;11.67;;
20379;SDS011;10349;48.666;8.948;2023-05-14T06:38:29;10.53;;;9.43;;
20379;SDS011;10349;48.666;8.948;2023-05-14T06:40:55;13.10;;;10.70;;
20379;SDS011;10349;48.666;8.948;2023-05-14T06:43:21;14.37;;;9.50;;
20379;SDS011;10349;48.666;8.948;2023-05-14T06:45:47;15.53;;;10.30;;
20379;SDS011;10349;48.666;8.948;2023-05-14T06:48:13;18.20;;;10.60;;
20379;SDS011;10349;48.666;8.948;2023-05-14T06:50:39;17.30;;;11.30;;
20379;SDS011;10349;48.666;8.948;2023-05-14T06:53:05;16.63;;;11.57;;
20379;SDS011;10349;48.666;8.948;2023-05-14T06:55:31;16.07;;;10.50;;
20379;SDS011;10349;48.666;8.948;2023-05-14T06:57:56;15.50;;;11.03;;
20379;SDS011;10349;48.666;8.948;2023-05-14T07:00:22;16.33;;;11.50;;
20379;SDS011;10349;48.666;8.948;2023-05-14T07:02:48;19.17;;;10.30;;
20379;SDS011;10349;48.666;8.948;2023-05-14T07:05:13;17.50;;;11.47;;
20379;SDS011;10349;48.666;8.948;2023-05-14T07:07:39;15.77;;;10.57;;
20379;SDS011;10349;48.666;8.948;2023-05-14T07:10:05;13.97;;;11.30;;
20379;SDS011;10349;48.666;8.948;2023-05-14T07:12:32;14.10;;;11.07;;
20379;SDS011;10349;48.666;8.948;2023-05-14T07:14:58;14.37;;;10.03;;
20379;SDS011;10349;48.666;8.948;2023-05-14T07:17:23;18.80;;;11.57;;
20379;SDS011;10349;48.666;8.948;2023-05-14T07:19:49;17.87;;;11.33;;
20379;SDS011;10349;48.666;8.948;2023-05-14T07:22:15;19.33;;;11.50;;
20379;SDS011;10349;48.666;8.948;2023-05-14T07:24:40;18.37;;;11.10;;
20379;SDS011;10349;48.666;8.948;2023-05-14T07:27:06;19.17;;;13.70;;
20379;SDS011;10349;48.666;8.948;2023-05-14T07:29:32;18.30;;;10.60;;
20379;SDS011;10349;48.666;8.948;2023-05-14T07:31:59;12.60;;;9.53;;
20379;SDS011;10349;48.666;8.948;2023-05-14T07:34:25;17.30;;;11.53;;
20379;SDS011;10349;48.666;8.948;2023-05-14T07:36:51;16.63;;;11.43;;
20379;SDS011;10349;48.666;8.948;2023-05-14T07:39:17;12.77;;;9.77;;
20379;SDS011;10349;48.666;8.948;2023-05-14T07:41:42;16.30;;;11.40;;
20379;SDS011;10349;48.666;8.948;2023-05-14T07:44:08;16.10;;;11.27;;
20379;SDS011;10349;48.666;8.948;2023-05-14T07:46:35;17.50;;;11.10;;
20379;SDS011;10349;48.666;8.948;2023-05-14T07:49:01;19.60;;;11.37;;
20379;SDS011;10349;48.666;8.948;2023-05-14T07:51:27;17.20;;;12.10;;
20379;SDS011;10349;48.666;8.948;2023-05-14T07:53:53;16.20;;;10.87;;
20379;SDS011;10349;48.666;8.948;2023-05-14T07:56:20;19.07;;;12.20;;
20379;SDS011;10349;48.666;8.948;2023-05-14T07:58:46;16.10;;;10.37;;
20379;SDS011;10349;48.666;8.948;2023-05-14T08:01:12;16.47;;;10.70;;
20379;SDS011;10349;48.666;8.948;2023-05-14T08:03:38;16.93;;;10.60;;
20379;SDS011;10349;48.666;8.948;2023-05-14T08:06:04;20.50;;;13.07;;
20379;SDS011;10349;48.666;8.948;2023-05-14T08:08:30;14.27;;;10.20;;
20379;SDS011;10349;48.666;8.948;2023-05-14T08:10:55;17.00;;;12.47;;
20379;SDS011;10349;48.666;8.948;2023-05-14T08:13:21;17.30;;;12.23;;
20379;SDS011;10349;48.666;8.948;2023-05-14T08:15:47;14.53;;;10.20;;
20379;SDS011;10349;48.666;8.948;2023-05-14T08:18:15;15.53;;;9.30;;
20379;SDS011;10349;48.666;8.948;2023-05-14T08:20:41;17.27;;;10.60;;
20379;SDS011;10349;48.666;8.948;2023-05-14T08:23:06;17.30;;;10.80;;
20379;SDS011;10349;48.666;8.948;2023-05-14T08:25:33;15.53;;;10.43;;
20379;SDS011;10349;48.666;8.948;2023-05-14T08:27:58;12.50;;;10.00;;
20379;SDS011;10349;48.666;8.948;2023-05-14T08:30:27;21.07;;;12.53;;
20379;SDS011;10349;48.666;8.948;2023-05-14T08:32:52;12.73;;;10.43;;
20379;SDS011;10349;48.666;8.948;2023-05-14T08:35:18;15.50;;;11.03;;
20379;SDS011;10349;48.666;8.948;2023-05-14T08:37:44;13.77;;;11.93;;
20379;SDS011;10349;48.666;8.948;2023-05-14T08:40:10;14.77;;;10.37;;
20379;SDS011;10349;48.666;8.948;2023-05-14T08:42:38;12.57;;;9.73;;
20379;SDS011;10349;48.666;8.948;2023-05-14T08:45:05;17.23;;;10.47;;
20379;SDS011;10349;48.666;8.948;2023-05-14T08:47:48;19.10;;;10.33;;
20379;SDS011;10349;48.666;8.948;2023-05-14T08:50:14;18.17;;;11.00;;
20379;SDS011;10349;48.666;8.948;2023-05-14T08:52:40;13.13;;;10.10;;
20379;SDS011;10349;48.666;8.948;2023-05-14T08:55:06;13.17;;;10.50;;
20379;SDS011;10349;48.666;8.948;2023-05-14T08:57:34;14.93;;;9.47;;
20379;SDS011;10349;48.666;8.948;2023-05-14T09:00:00;16.20;;;11.97;;
20379;SDS011;10349;48.666;8.948;2023-05-14T09:02:32;16.57;;;11.00;;
20379;SDS011;10349;48.666;8.948;2023-05-14T09:04:58;15.33;;;10.47;;
20379;SDS011;10349;48.666;8.948;2023-05-14T09:07:25;16.60;;;10.40;;
20379;SDS011;10349;48.666;8.948;2023-05-14T09:09:51;14.40;;;10.00;;
20379;SDS011;10349;48.666;8.948;2023-05-14T09:12:18;10.57;;;8.70;;
20379;SDS011;10349;48.666;8.948;2023-05-14T09:14:44;15.13;;;9.90;;
20379;SDS011;10349;48.666;8.948;2023-05-14T09:17:11;13.00;;;10.33;;
20379;SDS011;10349;48.666;8.948;2023-05-14T09:19:41;10.63;;;8.47;;
20379;SDS011;10349;48.666;8.948;2023-05-14T09:22:08;10.07;;;9.00;;
20379;SDS011;10349;48.666;8.948;2023-05-14T09:24:37;12.53;;;8.70;;
20379;SDS011;10349;48.666;8.948;2023-05-14T09:27:04;13.93;;;9.47;;
20379;SDS011;10349;48.666;8.948;2023-05-14T09:29:30;13.00;;;10.20;;
20379;SDS011;10349;48.666;8.948;2023-05-14T09:31:58;13.93;;;8.87;;
20379;SDS011;10349;48.666;8.948;2023-05-14T09:34:27;14.37;;;9.40;;
20379;SDS011;10349;48.666;8.948;2023-05-14T09:37:01;13.70;;;10.67;;
20379;SDS011;10349;48.666;8.948;2023-05-14T09:39:27;11.53;;;8.53;;
20379;SDS011;10349;48.666;8.948;2023-05-14T09:41:54;9.10;;;8.20;;
20379;SDS011;10349;48.666;8.948;2023-05-14T09:44:20;11.60;;;9.70;;
20379;SDS011;10349;48.666;8.948;2023-05-14T09:46:48;10.90;;;8.17;;
20379;SDS011;10349;48.666;8.948;2023-05-14T09:49:15;12.20;;;8.37;;
20379;SDS011;10349;48.666;8.948;2023-05-14T09:51:41;11.20;;;8.63;;
20379;SDS011;10349;48.666;8.948;2023-05-14T09:54:07;14.47;;;9.00;;
20379;SDS011;10349;48.666;8.948;2023-05-14T09:56:33;7.03;;;6.33;;
20379;SDS011;10349;48.666;8.948;2023-05-14T09:59:00;6.40;;;5.80;;
20379;SDS011;10349;48.666;8.948;2023-05-14T10:01:27;8.13;;;7.30;;
20379;SDS011;10349;48.666;8.948;2023-05-14T10:03:54;8.00;;;6.83;;
20379;SDS011;10349;48.666;8.948;2023-05-14T10:06:22;8.47;;;7.53;;
20379;SDS011;10349;48.666;8.948;2023-05-14T10:09:02;8.80;;;7.50;;
20379;SDS011;10349;48.666;8.948;2023-05-14T10:11:33;15.30;;;7.17;;
20379;SDS011;10349;48.666;8.948;2023-05-14T10:14:05;11.97;;;8.87;;
20379;SDS011;10349;48.666;8.948;2023-05-14T10:16:33;10.50;;;8.67;;
20379;SDS011;10349;48.666;8.948;2023-05-14T10:19:20;9.53;;;8.17;;
20379;SDS011;10349;48.666;8.948;2023-05-14T10:21:59;8.40;;;6.80;;
20379;SDS011;10349;48.666;8.948;2023-05-14T10:24:29;9.83;;;8.43;;
20379;SDS011;10349;48.666;8.948;2023-05-14T10:26:55;10.53;;;9.50;;
20379;SDS011;10349;48.666;8.948;2023-05-14T10:29:35;10.67;;;8.27;;
20379;SDS011;10349;48.666;8.948;2023-05-14T10:32:05;11.73;;;8.57;;
20379;SDS011;10349;48.666;8.948;2023-05-14T10:34:33;10.60;;;8.07;;
20379;SDS011;10349;48.666;8.948;2023-05-14T10:37:14;9.80;;;8.30;;
20379;SDS011;10349;48.666;8.948;2023-05-14T10:39:43;14.57;;;8.23;;
20379;SDS011;10349;48.666;8.948;2023-05-14T10:42:19;12.53;;;8.50;;
20379;SDS011;10349;48.666;8.948;2023-05-14T10:47:29;9.87;;;8.57;;
20379;SDS011;10349;48.666;8.948;2023-05-14T10:50:01;10.73;;;8.33;;
20379;SDS011;10349;48.666;8.948;2023-05-14T10:52:28;9.43;;;8.10;;
20379;SDS011;10349;48.666;8.948;2023-05-14T10:54:55;10.23;;;8.07;;
20379;SDS011;10349;48.666;8.948;2023-05-14T10:57:23;10.40;;;8.20;;
20379;SDS011;10349;48.666;8.948;2023-05-14T10:59:51;9.07;;;7.60;;
20379;SDS011;10349;48.666;8.948;2023-05-14T11:02:26;11.43;;;6.90;;
20379;SDS011;10349;48.666;8.948;2023-05-14T11:07:31;7.40;;;6.73;;
20379;SDS011;10349;48.666;8.948;2023-05-14T11:09:59;10.20;;;7.00;;
20379;SDS011;10349;48.666;8.948;2023-05-14T11:12:26;9.40;;;7.63;;
20379;SDS011;10349;48.666;8.948;2023-05-14T11:14:55;8.73;;;7.87;;
20379;SDS011;10349;48.666;8.948;2023-05-14T11:17:22;10.23;;;7.50;;
20379;SDS011;10349;48.666;8.948;2023-05-14T11:19:49;8.80;;;7.63;;
20379;SDS011;10349;48.666;8.948;2023-05-14T11:22:15;6.80;;;6.07;;
20379;SDS011;10349;48.666;8.948;2023-05-14T11:24:40;6.20;;;5.40;;
20379;SDS011;10349;48.666;8.948;2023-05-14T11:27:07;6.90;;;6.20;;
20379;SDS011;10349;48.666;8.948;2023-05-14T11:29:34;7.67;;;6.50;;
20379;SDS011;10349;48.666;8.948;2023-05-14T11:32:03;7.53;;;6.80;;
20379;SDS011;10349;48.666;8.948;2023-05-14T11:34:31;8.00;;;7.20;;
20379;SDS011;10349;48.666;8.948;2023-05-14T11:37:01;7.07;;;6.37;;
20379;SDS011;10349;48.666;8.948;2023-05-14T11:39:28;6.60;;;5.83;;
20379;SDS011;10349;48.666;8.948;2023-05-14T11:41:58;6.27;;;5.67;;
20379;SDS011;10349;48.666;8.948;2023-05-14T11:44:26;7.83;;;7.07;;
20379;SDS011;10349;48.666;8.948;2023-05-14T11:46:53;6.23;;;5.63;;
20379;SDS011;10349;48.666;8.948;2023-05-14T11:49:21;6.80;;;6.20;;
20379;SDS011;10349;48.666;8.948;2023-05-14T11:51:55;5.90;;;5.33;;
20379;SDS011;10349;48.666;8.948;2023-05-14T11:54:25;6.70;;;6.10;;
20379;SDS011;10349;48.666;8.948;2023-05-14T11:56:57;5.80;;;5.30;;
20379;SDS011;10349;48.666;8.948;2023-05-14T11:59:24;6.13;;;5.53;;
20379;SDS011;10349;48.666;8.948;2023-05-14T12:01:55;6.27;;;5.60;;
20379;SDS011;10349;48.666;8.948;2023-05-14T12:04:22;8.63;;;7.50;;
20379;SDS011;10349;48.666;8.948;2023-05-14T12:06:51;8.63;;;7.83;;
20379;SDS011;10349;48.666;8.948;2023-05-14T12:09:23;13.10;;;8.13;;
20379;SDS011;10349;48.666;8.948;2023-05-14T12:12:11;8.67;;;7.77;;
20379;SDS011;10349;48.666;8.948;2023-05-14T12:14:37;8.60;;;7.70;;
20379;SDS011;10349;48.666;8.948;2023-05-14T12:17:15;10.53;;;6.70;;
20379;SDS011;10349;48.666;8.948;2023-05-14T12:19:44;7.13;;;6.43;;
20379;SDS011;10349;48.666;8.948;2023-05-14T12:22:11;6.57;;;6.07;;
20379;SDS011;10349;48.666;8.948;2023-05-14T12:24:39;7.07;;;6.37;;
20379;SDS011;10349;48.666;8.948;2023-05-14T12:27:05;10.10;;;7.53;;
20379;SDS011;10349;48.666;8.948;2023-05-14T12:29:34;7.87;;;6.80;;
20379;SDS011;10349;48.666;8.948;2023-05-14T12:32:01;7.20;;;6.50;;
20379;SDS011;10349;48.666;8.948;2023-05-14T12:34:32;6.60;;;6.00;;
20379;SDS011;10349;48.666;8.948;2023-05-14T12:36:58;6.80;;;6.10;;
20379;SDS011;10349;48.666;8.948;2023-05-14T12:39:23;6.47;;;5.87;;
20379;SDS011;10349;48.666;8.948;2023-05-14T12:41:49;6.77;;;5.97;;
20379;SDS011;10349;48.666;8.948;2023-05-14T12:44:15;6.20;;;5.60;;
20379;SDS011;10349;48.666;8.948;2023-05-14T12:46:40;6.43;;;5.83;;
20379;SDS011;10349;48.666;8.948;2023-05-14T12:49:06;6.83;;;6.13;;
20379;SDS011;10349;48.666;8.948;2023-05-14T12:51:32;7.17;;;6.37;;
20379;SDS011;10349;48.666;8.948;2023-05-14T12:53:58;6.53;;;5.93;;
20379;SDS011;10349;48.666;8.948;2023-05-14T12:56:24;5.57;;;5.17;;
20379;SDS011;10349;48.666;8.948;2023-05-14T12:58:55;5.23;;;4.60;;
20379;SDS011;10349;48.666;8.948;2023-05-14T13:01:21;6.10;;;5.50;;
20379;SDS011;10349;48.666;8.948;2023-05-14T13:03:48;6.07;;;5.47;;
20379;SDS011;10349;48.666;8.948;2023-05-14T13:06:13;6.23;;;5.73;;
20379;SDS011;10349;48.666;8.948;2023-05-14T13:08:39;8.13;;;6.00;;
20379;SDS011;10349;48.666;8.948;2023-05-14T13:11:05;6.87;;;6.27;;
20379;SDS011;10349;48.666;8.948;2023-05-14T13:13:32;7.30;;;6.17;;
20379;SDS011;10349;48.666;8.948;2023-05-14T13:15:57;7.73;;;7.00;;
20379;SDS011;10349;48.666;8.948;2023-05-14T13:18:23;9.20;;;6.80;;
20379;SDS011;10349;48.666;8.948;2023-05-14T13:20:50;6.90;;;6.30;;
20379;SDS011;10349;48.666;8.948;2023-05-14T13:23:18;7.23;;;6.60;;
20379;SDS011;10349;48.666;8.948;2023-05-14T13:25:44;7.10;;;6.50;;
20379;SDS011;10349;48.666;8.948;2023-05-14T13:28:09;11.23;;;6.47;;
20379;SDS011;10349;48.666;8.948;2023-05-14T13:30:35;7.93;;;7.03;;
20379;SDS011;10349;48.666;8.948;2023-05-14T13:33:01;6.83;;;6.00;;
20379;SDS011;10349;48.666;8.948;2023-05-14T13:35:26;6.80;;;6.13;;
20379;SDS011;10349;48.666;8.948;2023-05-14T13:37:52;8.40;;;6.90;;
20379;SDS011;10349;48.666;8.948;2023-05-14T13:40:18;9.20;;;8.00;;
20379;SDS011;10349;48.666;8.948;2023-05-14T13:42:44;8.17;;;7.07;;
20379;SDS011;10349;48.666;8.948;2023-05-14T13:45:09;10.87;;;7.10;;
20379;SDS011;10349;48.666;8.948;2023-05-14T13:47:37;7.27;;;6.57;;
20379;SDS011;10349;48.666;8.948;2023-05-14T13:50:02;8.03;;;7.13;;
20379;SDS011;10349;48.666;8.948;2023-05-14T13:52:28;8.93;;;6.70;;
20379;SDS011;10349;48.666;8.948;2023-05-14T13:54:54;7.10;;;6.40;;
20379;SDS011;10349;48.666;8.948;2023-05-14T13:57:20;6.10;;;5.50;;
20379;SDS011;10349;48.666;8.948;2023-05-14T13:59:47;7.80;;;7.03;;
20379;SDS011;10349;48.666;8.948;2023-05-14T14:02:13;9.63;;;7.00;;
20379;SDS011;10349;48.666;8.948;2023-05-14T14:04:39;8.83;;;6.67;;
20379;SDS011;10349;48.666;8.948;2023-05-14T14:07:05;6.63;;;6.03;;
20379;SDS011;10349;48.666;8.948;2023-05-14T14:09:30;6.40;;;5.70;;
20379;SDS011;10349;48.666;8.948;2023-05-14T14:11:59;6.20;;;5.70;;
20379;SDS011;10349;48.666;8.948;2023-05-14T14:14:26;7.00;;;6.30;;
20379;SDS011;10349;48.666;8.948;2023-05-14T14:16:52;6.67;;;6.00;;
20379;SDS011;10349;48.666;8.948;2023-05-14T14:19:19;7.17;;;6.20;;
20379;SDS011;10349;48.666;8.948;2023-05-14T14:21:45;6.50;;;5.93;;
20379;SDS011;10349;48.666;8.948;2023-05-14T14:24:10;9.07;;;5.53;;
20379;SDS011;10349;48.666;8.948;2023-05-14T14:26:36;6.07;;;5.57;;
20379;SDS011;10349;48.666;8.948;2023-05-14T14:29:02;6.93;;;6.23;;
20379;SDS011;10349;48.666;8.948;2023-05-14T14:31:27;6.00;;;5.47;;
20379;SDS011;10349;48.666;8.948;2023-05-14T14:33:53;5.70;;;5.30;;
20379;SDS011;10349;48.666;8.948;2023-05-14T14:36:19;6.30;;;5.70;;
20379;SDS011;10349;48.666;8.948;2023-05-14T14:38:45;5.70;;;5.30;;
20379;SDS011;10349;48.666;8.948;2023-05-14T14:41:10;5.03;;;4.70;;